KGTR/GTR METAR and TAF weather

Enter ICAO airport designator
Station Type Date Time Source
KGTR METAR 2021/05/17 21:56 UTC NOAA

KGTR 172156Z 12010KT 10SM CLR 26/17 A3004 RMK AO2 SLP178 T02560172


Station Type Date Time Source
KGTR Decoded METAR 2021/05/17 21:56 UTC NOAA

Columbus/West Point/Starkville, Golden Triangle Regional Airport, MS, United States (KGTR) 33-27N 088-35W
May 17, 2021 - 05:56 PM EDT / 2021.05.17 2156 UTC
Wind: from the ESE (120 degrees) at 12 MPH (10 KT):0
Visibility: 10 mile(s):0
Sky conditions: clear
Temperature: 78.1 F (25.6 C)
Dew Point: 63.0 F (17.2 C)
Relative Humidity: 59%
Pressure (altimeter): 30.04 in. Hg (1017 hPa)
ob: KGTR 172156Z 12010KT 10SM CLR 26/17 A3004 RMK AO2 SLP178 T02560172
cycle: 22

Station Type Date Time Source
KGTR TAF 2021/05/17 18:22 UTC NOAA

TAF KGTR 171720Z 1718/1818 14013KT P6SM BKN250
FM181500 15015G22KT P6SM SCT040 BKN100

Example: see airport list